Terminal Aerodrome Forecast
Issued by NWS

Home | Current Version | Previous Version | Text Only | Print | Product List | Glossary On
Versions: 1 2 3 4 5 6 7 8 9 10 11 12 13 14 15 16 17 18 19 20
000
FTUS44 KLIX 042331
TAFMSY
TAF
KMSY 042331Z 0500/0524 05008KT P6SM FEW030
     FM050130 VRB04KT P6SM SCT250
     FM051400 24008KT P6SM SCT035 PROB30 0519/0524 2SM TSRA
      BKN030CB=

USA.gov is the U.S. government's official web portal to all federal, state and local government web resources and services.